<?xml version="1.0" encoding="UTF-8" standalone="no" ?>
<gpx xmlns="http://www.topografix.com/GPX/1/1" xmlns:xsi="http://www.w3.org/2001/XMLSchema-instance" xsi:schemaLocation="http://www.topografix.com/GPX/1/1 http://www.topografix.com/GPX/1/1/gpx.xsd" version="1.1" creator="VisuGPX - https://www.visugpx.com">
  <metadata>
    <name>La Ramee par Chemin de Ramelet Moundi - 8,2 km</name>
    <desc><![CDATA[Tour du lac de la Ramee]]></desc>
  </metadata>
  <trk>
    <name><![CDATA[La Ramee - End]]></name>
    <trkseg>
      <trkpt lat="43.58097" lon="1.3755">
        <ele>168.60000610352</ele>
        <time>2014-10-22T10:08:25.000Z</time>
      </trkpt>
      <trkpt lat="43.58099" lon="1.37539">
        <ele>167.80000305176</ele>
        <time>2014-10-22T10:08:28.000Z</time>
      </trkpt>
      <trkpt lat="43.58101" lon="1.37536">
        <ele>166</ele>
        <time>2014-10-22T10:08:29.000Z</time>
      </trkpt>
      <trkpt lat="43.58105" lon="1.37527">
        <ele>165.39999389648</ele>
        <time>2014-10-22T10:08:32.000Z</time>
      </trkpt>
      <trkpt lat="43.58112" lon="1.37522">
        <ele>164.39999389648</ele>
        <time>2014-10-22T10:08:35.000Z</time>
      </trkpt>
      <trkpt lat="43.58114" lon="1.37521">
        <ele>164.19999694824</ele>
        <time>2014-10-22T10:08:36.000Z</time>
      </trkpt>
      <trkpt lat="43.58125" lon="1.37508">
        <ele>163.19999694824</ele>
        <time>2014-10-22T10:08:41.000Z</time>
      </trkpt>
      <trkpt lat="43.58131" lon="1.37495">
        <ele>163.80000305176</ele>
        <time>2014-10-22T10:08:45.000Z</time>
      </trkpt>
      <trkpt lat="43.58129" lon="1.37481">
        <ele>163.80000305176</ele>
        <time>2014-10-22T10:08:49.000Z</time>
      </trkpt>
      <trkpt lat="43.58123" lon="1.37471">
        <ele>164</ele>
        <time>2014-10-22T10:08:53.000Z</time>
      </trkpt>
      <trkpt lat="43.5812" lon="1.37468">
        <ele>164.19999694824</ele>
        <time>2014-10-22T10:08:54.000Z</time>
      </trkpt>
      <trkpt lat="43.58105" lon="1.37459">
        <ele>164.60000610352</ele>
        <time>2014-10-22T10:09:00.000Z</time>
      </trkpt>
      <trkpt lat="43.58098" lon="1.37444">
        <ele>164.80000305176</ele>
        <time>2014-10-22T10:09:04.000Z</time>
      </trkpt>
      <trkpt lat="43.58094" lon="1.37424">
        <ele>165</ele>
        <time>2014-10-22T10:09:09.000Z</time>
      </trkpt>
      <trkpt lat="43.58089" lon="1.37406">
        <ele>165.39999389648</ele>
        <time>2014-10-22T10:09:14.000Z</time>
      </trkpt>
      <trkpt lat="43.58083" lon="1.37387">
        <ele>165.60000610352</ele>
        <time>2014-10-22T10:09:19.000Z</time>
      </trkpt>
      <trkpt lat="43.58078" lon="1.37366">
        <ele>166</ele>
        <time>2014-10-22T10:09:25.000Z</time>
      </trkpt>
      <trkpt lat="43.58076" lon="1.3735">
        <ele>166.19999694824</ele>
        <time>2014-10-22T10:09:30.000Z</time>
      </trkpt>
      <trkpt lat="43.58068" lon="1.37326">
        <ele>166.60000610352</ele>
        <time>2014-10-22T10:09:36.000Z</time>
      </trkpt>
      <trkpt lat="43.58062" lon="1.37307">
        <ele>166.80000305176</ele>
        <time>2014-10-22T10:09:41.000Z</time>
      </trkpt>
      <trkpt lat="43.58058" lon="1.37291">
        <ele>167.19999694824</ele>
        <time>2014-10-22T10:09:47.000Z</time>
      </trkpt>
      <trkpt lat="43.58056" lon="1.37273">
        <ele>167.39999389648</ele>
        <time>2014-10-22T10:09:52.000Z</time>
      </trkpt>
      <trkpt lat="43.58053" lon="1.37254">
        <ele>167.19999694824</ele>
        <time>2014-10-22T10:09:58.000Z</time>
      </trkpt>
      <trkpt lat="43.58052" lon="1.37239">
        <ele>167.19999694824</ele>
        <time>2014-10-22T10:10:03.000Z</time>
      </trkpt>
      <trkpt lat="43.58051" lon="1.37235">
        <ele>167.19999694824</ele>
        <time>2014-10-22T10:10:04.000Z</time>
      </trkpt>
      <trkpt lat="43.58045" lon="1.37214">
        <ele>167.19999694824</ele>
        <time>2014-10-22T10:10:10.000Z</time>
      </trkpt>
      <trkpt lat="43.58039" lon="1.37198">
        <ele>167.39999389648</ele>
        <time>2014-10-22T10:10:14.000Z</time>
      </trkpt>
      <trkpt lat="43.58039" lon="1.37196">
        <ele>167.39999389648</ele>
        <time>2014-10-22T10:10:15.000Z</time>
      </trkpt>
      <trkpt lat="43.58037" lon="1.37175">
        <ele>167.60000610352</ele>
        <time>2014-10-22T10:10:21.000Z</time>
      </trkpt>
      <trkpt lat="43.58035" lon="1.37155">
        <ele>167.80000305176</ele>
        <time>2014-10-22T10:10:26.000Z</time>
      </trkpt>
      <trkpt lat="43.58032" lon="1.37134">
        <ele>167.80000305176</ele>
        <time>2014-10-22T10:10:31.000Z</time>
      </trkpt>
      <trkpt lat="43.5803" lon="1.37109">
        <ele>167.60000610352</ele>
        <time>2014-10-22T10:10:37.000Z</time>
      </trkpt>
      <trkpt lat="43.58032" lon="1.37107">
        <ele>167.60000610352</ele>
        <time>2014-10-22T10:10:38.000Z</time>
      </trkpt>
      <trkpt lat="43.58032" lon="1.37096">
        <ele>167.60000610352</ele>
        <time>2014-10-22T10:10:41.000Z</time>
      </trkpt>
      <trkpt lat="43.58033" lon="1.37078">
        <ele>167.60000610352</ele>
        <time>2014-10-22T10:10:46.000Z</time>
      </trkpt>
      <trkpt lat="43.58034" lon="1.37076">
        <ele>167.60000610352</ele>
        <time>2014-10-22T10:10:47.000Z</time>
      </trkpt>
      <trkpt lat="43.58033" lon="1.37059">
        <ele>167.39999389648</ele>
        <time>2014-10-22T10:10:51.000Z</time>
      </trkpt>
      <trkpt lat="43.5804" lon="1.37042">
        <ele>167.39999389648</ele>
        <time>2014-10-22T10:10:56.000Z</time>
      </trkpt>
      <trkpt lat="43.5804" lon="1.37026">
        <ele>167.39999389648</ele>
        <time>2014-10-22T10:11:00.000Z</time>
      </trkpt>
      <trkpt lat="43.58034" lon="1.3701">
        <ele>167.39999389648</ele>
        <time>2014-10-22T10:11:04.000Z</time>
      </trkpt>
      <trkpt lat="43.58033" lon="1.36989">
        <ele>167.60000610352</ele>
        <time>2014-10-22T10:11:09.000Z</time>
      </trkpt>
      <trkpt lat="43.58032" lon="1.36965">
        <ele>167.60000610352</ele>
        <time>2014-10-22T10:11:15.000Z</time>
      </trkpt>
      <trkpt lat="43.58032" lon="1.36945">
        <ele>167.80000305176</ele>
        <time>2014-10-22T10:11:20.000Z</time>
      </trkpt>
      <trkpt lat="43.58031" lon="1.36927">
        <ele>167.80000305176</ele>
        <time>2014-10-22T10:11:25.000Z</time>
      </trkpt>
      <trkpt lat="43.58027" lon="1.36906">
        <ele>167.80000305176</ele>
        <time>2014-10-22T10:11:30.000Z</time>
      </trkpt>
      <trkpt lat="43.58025" lon="1.36886">
        <ele>167.80000305176</ele>
        <time>2014-10-22T10:11:36.000Z</time>
      </trkpt>
      <trkpt lat="43.5802" lon="1.36869">
        <ele>167.80000305176</ele>
        <time>2014-10-22T10:11:41.000Z</time>
      </trkpt>
      <trkpt lat="43.58013" lon="1.36851">
        <ele>167.80000305176</ele>
        <time>2014-10-22T10:11:46.000Z</time>
      </trkpt>
      <trkpt lat="43.58007" lon="1.36833">
        <ele>168</ele>
        <time>2014-10-22T10:11:51.000Z</time>
      </trkpt>
      <trkpt lat="43.58002" lon="1.36813">
        <ele>168.19999694824</ele>
        <time>2014-10-22T10:11:56.000Z</time>
      </trkpt>
      <trkpt lat="43.57994" lon="1.36798">
        <ele>168.60000610352</ele>
        <time>2014-10-22T10:12:00.000Z</time>
      </trkpt>
      <trkpt lat="43.57988" lon="1.36779">
        <ele>168.60000610352</ele>
        <time>2014-10-22T10:12:06.000Z</time>
      </trkpt>
      <trkpt lat="43.57982" lon="1.36762">
        <ele>168.60000610352</ele>
        <time>2014-10-22T10:12:11.000Z</time>
      </trkpt>
      <trkpt lat="43.57977" lon="1.36739">
        <ele>168.80000305176</ele>
        <time>2014-10-22T10:12:17.000Z</time>
      </trkpt>
      <trkpt lat="43.57983" lon="1.36721">
        <ele>169</ele>
        <time>2014-10-22T10:12:22.000Z</time>
      </trkpt>
      <trkpt lat="43.57984" lon="1.36701">
        <ele>169.19999694824</ele>
        <time>2014-10-22T10:12:27.000Z</time>
      </trkpt>
      <trkpt lat="43.5798" lon="1.36682">
        <ele>169.19999694824</ele>
        <time>2014-10-22T10:12:32.000Z</time>
      </trkpt>
      <trkpt lat="43.57985" lon="1.36671">
        <ele>169.19999694824</ele>
        <time>2014-10-22T10:12:35.000Z</time>
      </trkpt>
      <trkpt lat="43.57994" lon="1.3666">
        <ele>169.19999694824</ele>
        <time>2014-10-22T10:12:39.000Z</time>
      </trkpt>
      <trkpt lat="43.57996" lon="1.36654">
        <ele>169.19999694824</ele>
        <time>2014-10-22T10:12:41.000Z</time>
      </trkpt>
      <trkpt lat="43.58004" lon="1.36647">
        <ele>169</ele>
        <time>2014-10-22T10:12:44.000Z</time>
      </trkpt>
      <trkpt lat="43.58019" lon="1.3663">
        <ele>168.80000305176</ele>
        <time>2014-10-22T10:12:51.000Z</time>
      </trkpt>
      <trkpt lat="43.5803" lon="1.36614">
        <ele>168.80000305176</ele>
        <time>2014-10-22T10:12:57.000Z</time>
      </trkpt>
      <trkpt lat="43.58044" lon="1.36596">
        <ele>168.60000610352</ele>
        <time>2014-10-22T10:13:04.000Z</time>
      </trkpt>
      <trkpt lat="43.58055" lon="1.3658">
        <ele>168.39999389648</ele>
        <time>2014-10-22T10:13:10.000Z</time>
      </trkpt>
      <trkpt lat="43.58064" lon="1.3657">
        <ele>168.39999389648</ele>
        <time>2014-10-22T10:13:14.000Z</time>
      </trkpt>
      <trkpt lat="43.58073" lon="1.36558">
        <ele>168.19999694824</ele>
        <time>2014-10-22T10:13:19.000Z</time>
      </trkpt>
      <trkpt lat="43.58084" lon="1.36542">
        <ele>168</ele>
        <time>2014-10-22T10:13:25.000Z</time>
      </trkpt>
      <trkpt lat="43.58092" lon="1.36524">
        <ele>168</ele>
        <time>2014-10-22T10:13:31.000Z</time>
      </trkpt>
      <trkpt lat="43.58092" lon="1.36518">
        <ele>168</ele>
        <time>2014-10-22T10:13:33.000Z</time>
      </trkpt>
      <trkpt lat="43.58089" lon="1.36509">
        <ele>167.80000305176</ele>
        <time>2014-10-22T10:13:36.000Z</time>
      </trkpt>
      <trkpt lat="43.58085" lon="1.36493">
        <ele>167.80000305176</ele>
        <time>2014-10-22T10:13:41.000Z</time>
      </trkpt>
      <trkpt lat="43.58081" lon="1.36474">
        <ele>167.60000610352</ele>
        <time>2014-10-22T10:13:47.000Z</time>
      </trkpt>
      <trkpt lat="43.58079" lon="1.36467">
        <ele>167.60000610352</ele>
        <time>2014-10-22T10:13:49.000Z</time>
      </trkpt>
      <trkpt lat="43.58076" lon="1.36456">
        <ele>167.60000610352</ele>
        <time>2014-10-22T10:13:52.000Z</time>
      </trkpt>
      <trkpt lat="43.58069" lon="1.36432">
        <ele>167.39999389648</ele>
        <time>2014-10-22T10:13:59.000Z</time>
      </trkpt>
      <trkpt lat="43.58067" lon="1.36417">
        <ele>167</ele>
        <time>2014-10-22T10:14:04.000Z</time>
      </trkpt>
      <trkpt lat="43.58062" lon="1.36397">
        <ele>166.80000305176</ele>
        <time>2014-10-22T10:14:10.000Z</time>
      </trkpt>
      <trkpt lat="43.58059" lon="1.36378">
        <ele>166.39999389648</ele>
        <time>2014-10-22T10:14:16.000Z</time>
      </trkpt>
      <trkpt lat="43.58053" lon="1.36358">
        <ele>166.19999694824</ele>
        <time>2014-10-22T10:14:21.000Z</time>
      </trkpt>
      <trkpt lat="43.58047" lon="1.36335">
        <ele>166</ele>
        <time>2014-10-22T10:14:27.000Z</time>
      </trkpt>
      <trkpt lat="43.58042" lon="1.36316">
        <ele>165.80000305176</ele>
        <time>2014-10-22T10:14:32.000Z</time>
      </trkpt>
      <trkpt lat="43.58039" lon="1.36303">
        <ele>165.60000610352</ele>
        <time>2014-10-22T10:14:36.000Z</time>
      </trkpt>
      <trkpt lat="43.58039" lon="1.363">
        <ele>165.39999389648</ele>
        <time>2014-10-22T10:14:37.000Z</time>
      </trkpt>
      <trkpt lat="43.58036" lon="1.36276">
        <ele>165</ele>
        <time>2014-10-22T10:14:44.000Z</time>
      </trkpt>
      <trkpt lat="43.58032" lon="1.36265">
        <ele>164.39999389648</ele>
        <time>2014-10-22T10:14:48.000Z</time>
      </trkpt>
      <trkpt lat="43.58026" lon="1.36255">
        <ele>164</ele>
        <time>2014-10-22T10:14:53.000Z</time>
      </trkpt>
      <trkpt lat="43.58023" lon="1.36253">
        <ele>163.80000305176</ele>
        <time>2014-10-22T10:14:54.000Z</time>
      </trkpt>
      <trkpt lat="43.58017" lon="1.36248">
        <ele>163.60000610352</ele>
        <time>2014-10-22T10:14:57.000Z</time>
      </trkpt>
      <trkpt lat="43.5801" lon="1.36229">
        <ele>163.19999694824</ele>
        <time>2014-10-22T10:15:02.000Z</time>
      </trkpt>
      <trkpt lat="43.5801" lon="1.36218">
        <ele>163</ele>
        <time>2014-10-22T10:15:05.000Z</time>
      </trkpt>
      <trkpt lat="43.58011" lon="1.36214">
        <ele>162.80000305176</ele>
        <time>2014-10-22T10:15:06.000Z</time>
      </trkpt>
      <trkpt lat="43.58013" lon="1.36196">
        <ele>162.39999389648</ele>
        <time>2014-10-22T10:15:11.000Z</time>
      </trkpt>
      <trkpt lat="43.58008" lon="1.36175">
        <ele>162.39999389648</ele>
        <time>2014-10-22T10:15:16.000Z</time>
      </trkpt>
      <trkpt lat="43.58006" lon="1.3617">
        <ele>162.39999389648</ele>
        <time>2014-10-22T10:15:17.000Z</time>
      </trkpt>
      <trkpt lat="43.57999" lon="1.36155">
        <ele>162.19999694824</ele>
        <time>2014-10-22T10:15:22.000Z</time>
      </trkpt>
      <trkpt lat="43.57992" lon="1.36141">
        <ele>162.19999694824</ele>
        <time>2014-10-22T10:15:27.000Z</time>
      </trkpt>
      <trkpt lat="43.57985" lon="1.36125">
        <ele>162</ele>
        <time>2014-10-22T10:15:32.000Z</time>
      </trkpt>
      <trkpt lat="43.57978" lon="1.36108">
        <ele>161.80000305176</ele>
        <time>2014-10-22T10:15:37.000Z</time>
      </trkpt>
      <trkpt lat="43.57973" lon="1.36095">
        <ele>161.60000610352</ele>
        <time>2014-10-22T10:15:41.000Z</time>
      </trkpt>
      <trkpt lat="43.57964" lon="1.36073">
        <ele>161.39999389648</ele>
        <time>2014-10-22T10:15:47.000Z</time>
      </trkpt>
      <trkpt lat="43.57956" lon="1.36052">
        <ele>161.39999389648</ele>
        <time>2014-10-22T10:15:53.000Z</time>
      </trkpt>
      <trkpt lat="43.5795" lon="1.36035">
        <ele>161.39999389648</ele>
        <time>2014-10-22T10:15:58.000Z</time>
      </trkpt>
      <trkpt lat="43.57944" lon="1.36021">
        <ele>161.39999389648</ele>
        <time>2014-10-22T10:16:02.000Z</time>
      </trkpt>
      <trkpt lat="43.57935" lon="1.35996">
        <ele>161.19999694824</ele>
        <time>2014-10-22T10:16:10.000Z</time>
      </trkpt>
      <trkpt lat="43.57927" lon="1.35973">
        <ele>161</ele>
        <time>2014-10-22T10:16:17.000Z</time>
      </trkpt>
      <trkpt lat="43.57921" lon="1.35951">
        <ele>161</ele>
        <time>2014-10-22T10:16:23.000Z</time>
      </trkpt>
      <trkpt lat="43.57917" lon="1.35931">
        <ele>160.80000305176</ele>
        <time>2014-10-22T10:16:28.000Z</time>
      </trkpt>
      <trkpt lat="43.57914" lon="1.35911">
        <ele>160.60000610352</ele>
        <time>2014-10-22T10:16:34.000Z</time>
      </trkpt>
      <trkpt lat="43.57909" lon="1.35895">
        <ele>160.39999389648</ele>
        <time>2014-10-22T10:16:39.000Z</time>
      </trkpt>
      <trkpt lat="43.57907" lon="1.35895">
        <ele>160.39999389648</ele>
        <time>2014-10-22T10:16:40.000Z</time>
      </trkpt>
      <trkpt lat="43.579" lon="1.35901">
        <ele>160.39999389648</ele>
        <time>2014-10-22T10:16:42.000Z</time>
      </trkpt>
      <trkpt lat="43.57894" lon="1.35917">
        <ele>160.19999694824</ele>
        <time>2014-10-22T10:16:46.000Z</time>
      </trkpt>
      <trkpt lat="43.57885" lon="1.35931">
        <ele>160.19999694824</ele>
        <time>2014-10-22T10:16:51.000Z</time>
      </trkpt>
      <trkpt lat="43.57877" lon="1.35947">
        <ele>160</ele>
        <time>2014-10-22T10:16:56.000Z</time>
      </trkpt>
      <trkpt lat="43.57866" lon="1.35964">
        <ele>160</ele>
        <time>2014-10-22T10:17:02.000Z</time>
      </trkpt>
      <trkpt lat="43.57856" lon="1.35978">
        <ele>160.39999389648</ele>
        <time>2014-10-22T10:17:07.000Z</time>
      </trkpt>
      <trkpt lat="43.57848" lon="1.35984">
        <ele>160.60000610352</ele>
        <time>2014-10-22T10:17:11.000Z</time>
      </trkpt>
      <trkpt lat="43.57844" lon="1.35983">
        <ele>160.60000610352</ele>
        <time>2014-10-22T10:17:12.000Z</time>
      </trkpt>
      <trkpt lat="43.57832" lon="1.35978">
        <ele>161</ele>
        <time>2014-10-22T10:17:16.000Z</time>
      </trkpt>
      <trkpt lat="43.57826" lon="1.35974">
        <ele>161.19999694824</ele>
        <time>2014-10-22T10:17:18.000Z</time>
      </trkpt>
      <trkpt lat="43.57821" lon="1.35969">
        <ele>161.19999694824</ele>
        <time>2014-10-22T10:17:20.000Z</time>
      </trkpt>
      <trkpt lat="43.57806" lon="1.35956">
        <ele>161.39999389648</ele>
        <time>2014-10-22T10:17:25.000Z</time>
      </trkpt>
      <trkpt lat="43.57804" lon="1.35955">
        <ele>161.39999389648</ele>
        <time>2014-10-22T10:17:26.000Z</time>
      </trkpt>
      <trkpt lat="43.57787" lon="1.35941">
        <ele>161.19999694824</ele>
        <time>2014-10-22T10:17:32.000Z</time>
      </trkpt>
      <trkpt lat="43.57774" lon="1.3593">
        <ele>161</ele>
        <time>2014-10-22T10:17:38.000Z</time>
      </trkpt>
      <trkpt lat="43.57757" lon="1.35917">
        <ele>161</ele>
        <time>2014-10-22T10:17:45.000Z</time>
      </trkpt>
      <trkpt lat="43.57741" lon="1.35904">
        <ele>160.80000305176</ele>
        <time>2014-10-22T10:17:51.000Z</time>
      </trkpt>
      <trkpt lat="43.57739" lon="1.35902">
        <ele>160.60000610352</ele>
        <time>2014-10-22T10:17:52.000Z</time>
      </trkpt>
      <trkpt lat="43.57723" lon="1.35889">
        <ele>160.60000610352</ele>
        <time>2014-10-22T10:17:58.000Z</time>
      </trkpt>
      <trkpt lat="43.5772" lon="1.35887">
        <ele>160.60000610352</ele>
        <time>2014-10-22T10:17:59.000Z</time>
      </trkpt>
      <trkpt lat="43.57711" lon="1.35881">
        <ele>160.39999389648</ele>
        <time>2014-10-22T10:18:04.000Z</time>
      </trkpt>
      <trkpt lat="43.57699" lon="1.3587">
        <ele>160.39999389648</ele>
        <time>2014-10-22T10:18:09.000Z</time>
      </trkpt>
      <trkpt lat="43.57687" lon="1.35862">
        <ele>160.39999389648</ele>
        <time>2014-10-22T10:18:14.000Z</time>
      </trkpt>
      <trkpt lat="43.57672" lon="1.35849">
        <ele>160.39999389648</ele>
        <time>2014-10-22T10:18:20.000Z</time>
      </trkpt>
      <trkpt lat="43.57659" lon="1.3584">
        <ele>160.60000610352</ele>
        <time>2014-10-22T10:18:26.000Z</time>
      </trkpt>
      <trkpt lat="43.57644" lon="1.35829">
        <ele>161.19999694824</ele>
        <time>2014-10-22T10:18:32.000Z</time>
      </trkpt>
      <trkpt lat="43.57632" lon="1.35821">
        <ele>161.39999389648</ele>
        <time>2014-10-22T10:18:37.000Z</time>
      </trkpt>
      <trkpt lat="43.57616" lon="1.35808">
        <ele>161.80000305176</ele>
        <time>2014-10-22T10:18:43.000Z</time>
      </trkpt>
      <trkpt lat="43.57601" lon="1.35797">
        <ele>162</ele>
        <time>2014-10-22T10:18:49.000Z</time>
      </trkpt>
      <trkpt lat="43.57589" lon="1.35787">
        <ele>162</ele>
        <time>2014-10-22T10:18:54.000Z</time>
      </trkpt>
      <trkpt lat="43.57573" lon="1.35776">
        <ele>161.80000305176</ele>
        <time>2014-10-22T10:19:01.000Z</time>
      </trkpt>
      <trkpt lat="43.57558" lon="1.35764">
        <ele>161.80000305176</ele>
        <time>2014-10-22T10:19:07.000Z</time>
      </trkpt>
      <trkpt lat="43.57546" lon="1.35749">
        <ele>162</ele>
        <time>2014-10-22T10:19:13.000Z</time>
      </trkpt>
      <trkpt lat="43.5754" lon="1.35734">
        <ele>162</ele>
        <time>2014-10-22T10:19:17.000Z</time>
      </trkpt>
      <trkpt lat="43.57532" lon="1.35722">
        <ele>162.19999694824</ele>
        <time>2014-10-22T10:19:22.000Z</time>
      </trkpt>
      <trkpt lat="43.57518" lon="1.35712">
        <ele>162</ele>
        <time>2014-10-22T10:19:28.000Z</time>
      </trkpt>
      <trkpt lat="43.57507" lon="1.35703">
        <ele>162</ele>
        <time>2014-10-22T10:19:32.000Z</time>
      </trkpt>
      <trkpt lat="43.57498" lon="1.35688">
        <ele>162</ele>
        <time>2014-10-22T10:19:37.000Z</time>
      </trkpt>
      <trkpt lat="43.57486" lon="1.35678">
        <ele>162.19999694824</ele>
        <time>2014-10-22T10:19:43.000Z</time>
      </trkpt>
      <trkpt lat="43.57472" lon="1.35667">
        <ele>162.19999694824</ele>
        <time>2014-10-22T10:19:49.000Z</time>
      </trkpt>
      <trkpt lat="43.5746" lon="1.35659">
        <ele>162.19999694824</ele>
        <time>2014-10-22T10:19:54.000Z</time>
      </trkpt>
      <trkpt lat="43.57444" lon="1.35648">
        <ele>162.19999694824</ele>
        <time>2014-10-22T10:20:01.000Z</time>
      </trkpt>
      <trkpt lat="43.5743" lon="1.3564">
        <ele>162.19999694824</ele>
        <time>2014-10-22T10:20:07.000Z</time>
      </trkpt>
      <trkpt lat="43.57416" lon="1.35629">
        <ele>162.19999694824</ele>
        <time>2014-10-22T10:20:13.000Z</time>
      </trkpt>
      <trkpt lat="43.57402" lon="1.35618">
        <ele>162.19999694824</ele>
        <time>2014-10-22T10:20:20.000Z</time>
      </trkpt>
      <trkpt lat="43.57384" lon="1.35604">
        <ele>162</ele>
        <time>2014-10-22T10:20:27.000Z</time>
      </trkpt>
      <trkpt lat="43.57367" lon="1.35592">
        <ele>162</ele>
        <time>2014-10-22T10:20:34.000Z</time>
      </trkpt>
      <trkpt lat="43.57351" lon="1.35579">
        <ele>161.80000305176</ele>
        <time>2014-10-22T10:20:41.000Z</time>
      </trkpt>
      <trkpt lat="43.57338" lon="1.35569">
        <ele>161.80000305176</ele>
        <time>2014-10-22T10:20:47.000Z</time>
      </trkpt>
      <trkpt lat="43.57322" lon="1.35557">
        <ele>161.60000610352</ele>
        <time>2014-10-22T10:20:54.000Z</time>
      </trkpt>
      <trkpt lat="43.57318" lon="1.35553">
        <ele>161.60000610352</ele>
        <time>2014-10-22T10:20:56.000Z</time>
      </trkpt>
      <trkpt lat="43.57303" lon="1.35543">
        <ele>161.60000610352</ele>
        <time>2014-10-22T10:21:02.000Z</time>
      </trkpt>
      <trkpt lat="43.57291" lon="1.35534">
        <ele>161.60000610352</ele>
        <time>2014-10-22T10:21:08.000Z</time>
      </trkpt>
      <trkpt lat="43.57276" lon="1.35522">
        <ele>161.39999389648</ele>
        <time>2014-10-22T10:21:14.000Z</time>
      </trkpt>
      <trkpt lat="43.57265" lon="1.35514">
        <ele>161.39999389648</ele>
        <time>2014-10-22T10:21:19.000Z</time>
      </trkpt>
      <trkpt lat="43.57249" lon="1.35504">
        <ele>161.39999389648</ele>
        <time>2014-10-22T10:21:26.000Z</time>
      </trkpt>
      <trkpt lat="43.57233" lon="1.35491">
        <ele>161.39999389648</ele>
        <time>2014-10-22T10:21:33.000Z</time>
      </trkpt>
      <trkpt lat="43.57217" lon="1.35477">
        <ele>161.60000610352</ele>
        <time>2014-10-22T10:21:40.000Z</time>
      </trkpt>
      <trkpt lat="43.57201" lon="1.35462">
        <ele>161.60000610352</ele>
        <time>2014-10-22T10:21:47.000Z</time>
      </trkpt>
      <trkpt lat="43.5719" lon="1.35449">
        <ele>161.39999389648</ele>
        <time>2014-10-22T10:21:53.000Z</time>
      </trkpt>
      <trkpt lat="43.57176" lon="1.35436">
        <ele>161.60000610352</ele>
        <time>2014-10-22T10:21:59.000Z</time>
      </trkpt>
      <trkpt lat="43.57164" lon="1.3542">
        <ele>161.60000610352</ele>
        <time>2014-10-22T10:22:05.000Z</time>
      </trkpt>
      <trkpt lat="43.57154" lon="1.35405">
        <ele>161.60000610352</ele>
        <time>2014-10-22T10:22:11.000Z</time>
      </trkpt>
      <trkpt lat="43.57147" lon="1.35391">
        <ele>161.60000610352</ele>
        <time>2014-10-22T10:22:16.000Z</time>
      </trkpt>
      <trkpt lat="43.57139" lon="1.35368">
        <ele>161.60000610352</ele>
        <time>2014-10-22T10:22:23.000Z</time>
      </trkpt>
      <trkpt lat="43.5713" lon="1.35343">
        <ele>161.60000610352</ele>
        <time>2014-10-22T10:22:30.000Z</time>
      </trkpt>
      <trkpt lat="43.57124" lon="1.3532">
        <ele>161.39999389648</ele>
        <time>2014-10-22T10:22:37.000Z</time>
      </trkpt>
      <trkpt lat="43.57119" lon="1.35304">
        <ele>161.39999389648</ele>
        <time>2014-10-22T10:22:42.000Z</time>
      </trkpt>
      <trkpt lat="43.57111" lon="1.35281">
        <ele>161.19999694824</ele>
        <time>2014-10-22T10:22:49.000Z</time>
      </trkpt>
      <trkpt lat="43.57104" lon="1.35262">
        <ele>161</ele>
        <time>2014-10-22T10:22:55.000Z</time>
      </trkpt>
      <trkpt lat="43.57094" lon="1.35244">
        <ele>161</ele>
        <time>2014-10-22T10:23:01.000Z</time>
      </trkpt>
      <trkpt lat="43.57084" lon="1.35228">
        <ele>161</ele>
        <time>2014-10-22T10:23:07.000Z</time>
      </trkpt>
      <trkpt lat="43.57072" lon="1.35215">
        <ele>161</ele>
        <time>2014-10-22T10:23:13.000Z</time>
      </trkpt>
      <trkpt lat="43.57057" lon="1.35207">
        <ele>161</ele>
        <time>2014-10-22T10:23:19.000Z</time>
      </trkpt>
      <trkpt lat="43.57043" lon="1.35206">
        <ele>161</ele>
        <time>2014-10-22T10:23:24.000Z</time>
      </trkpt>
      <trkpt lat="43.57026" lon="1.35214">
        <ele>161</ele>
        <time>2014-10-22T10:23:31.000Z</time>
      </trkpt>
      <trkpt lat="43.57014" lon="1.35218">
        <ele>160.80000305176</ele>
        <time>2014-10-22T10:23:35.000Z</time>
      </trkpt>
      <trkpt lat="43.57" lon="1.35224">
        <ele>160.60000610352</ele>
        <time>2014-10-22T10:23:40.000Z</time>
      </trkpt>
      <trkpt lat="43.56987" lon="1.35234">
        <ele>160.19999694824</ele>
        <time>2014-10-22T10:23:45.000Z</time>
      </trkpt>
      <trkpt lat="43.56972" lon="1.35244">
        <ele>159.80000305176</ele>
        <time>2014-10-22T10:23:51.000Z</time>
      </trkpt>
      <trkpt lat="43.56959" lon="1.3525">
        <ele>159.39999389648</ele>
        <time>2014-10-22T10:23:56.000Z</time>
      </trkpt>
      <trkpt lat="43.56947" lon="1.35252">
        <ele>159</ele>
        <time>2014-10-22T10:24:00.000Z</time>
      </trkpt>
      <trkpt lat="43.56934" lon="1.35251">
        <ele>158.60000610352</ele>
        <time>2014-10-22T10:24:05.000Z</time>
      </trkpt>
      <trkpt lat="43.5692" lon="1.35244">
        <ele>158.39999389648</ele>
        <time>2014-10-22T10:24:11.000Z</time>
      </trkpt>
      <trkpt lat="43.56906" lon="1.35231">
        <ele>158.39999389648</ele>
        <time>2014-10-22T10:24:17.000Z</time>
      </trkpt>
      <trkpt lat="43.56897" lon="1.35215">
        <ele>158.39999389648</ele>
        <time>2014-10-22T10:24:23.000Z</time>
      </trkpt>
      <trkpt lat="43.56889" lon="1.35196">
        <ele>158.39999389648</ele>
        <time>2014-10-22T10:24:29.000Z</time>
      </trkpt>
      <trkpt lat="43.56883" lon="1.35177">
        <ele>158.60000610352</ele>
        <time>2014-10-22T10:24:35.000Z</time>
      </trkpt>
      <trkpt lat="43.56885" lon="1.35162">
        <ele>158.60000610352</ele>
        <time>2014-10-22T10:24:39.000Z</time>
      </trkpt>
      <trkpt lat="43.5688" lon="1.35149">
        <ele>158.60000610352</ele>
        <time>2014-10-22T10:24:44.000Z</time>
      </trkpt>
      <trkpt lat="43.56869" lon="1.35133">
        <ele>158.60000610352</ele>
        <time>2014-10-22T10:24:51.000Z</time>
      </trkpt>
      <trkpt lat="43.56867" lon="1.35131">
        <ele>158.60000610352</ele>
        <time>2014-10-22T10:24:52.000Z</time>
      </trkpt>
      <trkpt lat="43.56859" lon="1.35122">
        <ele>159</ele>
        <time>2014-10-22T10:24:56.000Z</time>
      </trkpt>
      <trkpt lat="43.56848" lon="1.35106">
        <ele>160</ele>
        <time>2014-10-22T10:25:02.000Z</time>
      </trkpt>
      <trkpt lat="43.56837" lon="1.351">
        <ele>160.39999389648</ele>
        <time>2014-10-22T10:25:07.000Z</time>
      </trkpt>
      <trkpt lat="43.56824" lon="1.35092">
        <ele>160.80000305176</ele>
        <time>2014-10-22T10:25:13.000Z</time>
      </trkpt>
      <trkpt lat="43.56807" lon="1.35087">
        <ele>161.19999694824</ele>
        <time>2014-10-22T10:25:20.000Z</time>
      </trkpt>
      <trkpt lat="43.56791" lon="1.35085">
        <ele>161.60000610352</ele>
        <time>2014-10-22T10:25:27.000Z</time>
      </trkpt>
      <trkpt lat="43.56771" lon="1.35082">
        <ele>162</ele>
        <time>2014-10-22T10:25:35.000Z</time>
      </trkpt>
      <trkpt lat="43.56753" lon="1.35077">
        <ele>162.19999694824</ele>
        <time>2014-10-22T10:25:42.000Z</time>
      </trkpt>
      <trkpt lat="43.56735" lon="1.35075">
        <ele>162.19999694824</ele>
        <time>2014-10-22T10:25:49.000Z</time>
      </trkpt>
      <trkpt lat="43.56716" lon="1.35073">
        <ele>162.39999389648</ele>
        <time>2014-10-22T10:25:56.000Z</time>
      </trkpt>
      <trkpt lat="43.567" lon="1.35067">
        <ele>162.39999389648</ele>
        <time>2014-10-22T10:26:02.000Z</time>
      </trkpt>
      <trkpt lat="43.56685" lon="1.35059">
        <ele>162.39999389648</ele>
        <time>2014-10-22T10:26:08.000Z</time>
      </trkpt>
      <trkpt lat="43.56666" lon="1.35049">
        <ele>162.39999389648</ele>
        <time>2014-10-22T10:26:15.000Z</time>
      </trkpt>
      <trkpt lat="43.56652" lon="1.35041">
        <ele>162.39999389648</ele>
        <time>2014-10-22T10:26:21.000Z</time>
      </trkpt>
      <trkpt lat="43.56639" lon="1.35034">
        <ele>162.39999389648</ele>
        <time>2014-10-22T10:26:26.000Z</time>
      </trkpt>
      <trkpt lat="43.56621" lon="1.35024">
        <ele>162.39999389648</ele>
        <time>2014-10-22T10:26:33.000Z</time>
      </trkpt>
      <trkpt lat="43.56606" lon="1.35016">
        <ele>162.39999389648</ele>
        <time>2014-10-22T10:26:39.000Z</time>
      </trkpt>
      <trkpt lat="43.56588" lon="1.35006">
        <ele>162.60000610352</ele>
        <time>2014-10-22T10:26:46.000Z</time>
      </trkpt>
      <trkpt lat="43.56586" lon="1.35005">
        <ele>162.60000610352</ele>
        <time>2014-10-22T10:26:47.000Z</time>
      </trkpt>
      <trkpt lat="43.56569" lon="1.34994">
        <ele>162.60000610352</ele>
        <time>2014-10-22T10:26:54.000Z</time>
      </trkpt>
      <trkpt lat="43.56566" lon="1.34992">
        <ele>162.39999389648</ele>
        <time>2014-10-22T10:26:55.000Z</time>
      </trkpt>
      <trkpt lat="43.56554" lon="1.34984">
        <ele>162.39999389648</ele>
        <time>2014-10-22T10:27:00.000Z</time>
      </trkpt>
      <trkpt lat="43.56539" lon="1.34973">
        <ele>162.39999389648</ele>
        <time>2014-10-22T10:27:06.000Z</time>
      </trkpt>
      <trkpt lat="43.56522" lon="1.3496">
        <ele>162.39999389648</ele>
        <time>2014-10-22T10:27:13.000Z</time>
      </trkpt>
      <trkpt lat="43.56506" lon="1.34945">
        <ele>162.19999694824</ele>
        <time>2014-10-22T10:27:20.000Z</time>
      </trkpt>
      <trkpt lat="43.56495" lon="1.34936">
        <ele>162</ele>
        <time>2014-10-22T10:27:25.000Z</time>
      </trkpt>
      <trkpt lat="43.5648" lon="1.3492">
        <ele>162</ele>
        <time>2014-10-22T10:27:32.000Z</time>
      </trkpt>
      <trkpt lat="43.5647" lon="1.34906">
        <ele>162</ele>
        <time>2014-10-22T10:27:37.000Z</time>
      </trkpt>
      <trkpt lat="43.56459" lon="1.34889">
        <ele>161.80000305176</ele>
        <time>2014-10-22T10:27:43.000Z</time>
      </trkpt>
      <trkpt lat="43.56449" lon="1.34873">
        <ele>161.80000305176</ele>
        <time>2014-10-22T10:27:49.000Z</time>
      </trkpt>
      <trkpt lat="43.56441" lon="1.34857">
        <ele>161.60000610352</ele>
        <time>2014-10-22T10:27:54.000Z</time>
      </trkpt>
      <trkpt lat="43.56432" lon="1.34839">
        <ele>161.60000610352</ele>
        <time>2014-10-22T10:28:00.000Z</time>
      </trkpt>
      <trkpt lat="43.56428" lon="1.34818">
        <ele>161.60000610352</ele>
        <time>2014-10-22T10:28:06.000Z</time>
      </trkpt>
      <trkpt lat="43.56423" lon="1.34796">
        <ele>161.39999389648</ele>
        <time>2014-10-22T10:28:12.000Z</time>
      </trkpt>
      <trkpt lat="43.56423" lon="1.34776">
        <ele>161.39999389648</ele>
        <time>2014-10-22T10:28:18.000Z</time>
      </trkpt>
      <trkpt lat="43.56423" lon="1.34756">
        <ele>161.19999694824</ele>
        <time>2014-10-22T10:28:24.000Z</time>
      </trkpt>
      <trkpt lat="43.56428" lon="1.34734">
        <ele>161.19999694824</ele>
        <time>2014-10-22T10:28:30.000Z</time>
      </trkpt>
      <trkpt lat="43.56436" lon="1.34718">
        <ele>161.19999694824</ele>
        <time>2014-10-22T10:28:36.000Z</time>
      </trkpt>
      <trkpt lat="43.56443" lon="1.34702">
        <ele>161</ele>
        <time>2014-10-22T10:28:41.000Z</time>
      </trkpt>
      <trkpt lat="43.56454" lon="1.3468">
        <ele>161</ele>
        <time>2014-10-22T10:28:48.000Z</time>
      </trkpt>
      <trkpt lat="43.56466" lon="1.34663">
        <ele>161</ele>
        <time>2014-10-22T10:28:54.000Z</time>
      </trkpt>
      <trkpt lat="43.56476" lon="1.34649">
        <ele>161</ele>
        <time>2014-10-22T10:28:59.000Z</time>
      </trkpt>
      <trkpt lat="43.56491" lon="1.34639">
        <ele>160.80000305176</ele>
        <time>2014-10-22T10:29:05.000Z</time>
      </trkpt>
      <trkpt lat="43.56505" lon="1.34634">
        <ele>160.60000610352</ele>
        <time>2014-10-22T10:29:10.000Z</time>
      </trkpt>
      <trkpt lat="43.56522" lon="1.34634">
        <ele>160.39999389648</ele>
        <time>2014-10-22T10:29:16.000Z</time>
      </trkpt>
      <trkpt lat="43.56542" lon="1.34639">
        <ele>160.19999694824</ele>
        <time>2014-10-22T10:29:23.000Z</time>
      </trkpt>
      <trkpt lat="43.56544" lon="1.3464">
        <ele>160</ele>
        <time>2014-10-22T10:29:24.000Z</time>
      </trkpt>
      <trkpt lat="43.56563" lon="1.34647">
        <ele>160</ele>
        <time>2014-10-22T10:29:31.000Z</time>
      </trkpt>
      <trkpt lat="43.56581" lon="1.34653">
        <ele>159.80000305176</ele>
        <time>2014-10-22T10:29:38.000Z</time>
      </trkpt>
      <trkpt lat="43.56593" lon="1.34646">
        <ele>159.80000305176</ele>
        <time>2014-10-22T10:29:43.000Z</time>
      </trkpt>
      <trkpt lat="43.56603" lon="1.34631">
        <ele>159.60000610352</ele>
        <time>2014-10-22T10:29:49.000Z</time>
      </trkpt>
      <trkpt lat="43.56612" lon="1.34613">
        <ele>159.39999389648</ele>
        <time>2014-10-22T10:29:55.000Z</time>
      </trkpt>
      <trkpt lat="43.56618" lon="1.34594">
        <ele>159.19999694824</ele>
        <time>2014-10-22T10:30:01.000Z</time>
      </trkpt>
      <trkpt lat="43.56625" lon="1.34569">
        <ele>158.80000305176</ele>
        <time>2014-10-22T10:30:08.000Z</time>
      </trkpt>
      <trkpt lat="43.56635" lon="1.34547">
        <ele>158.60000610352</ele>
        <time>2014-10-22T10:30:15.000Z</time>
      </trkpt>
      <trkpt lat="43.56637" lon="1.34545">
        <ele>158.39999389648</ele>
        <time>2014-10-22T10:30:16.000Z</time>
      </trkpt>
      <trkpt lat="43.56645" lon="1.34527">
        <ele>158</ele>
        <time>2014-10-22T10:30:22.000Z</time>
      </trkpt>
      <trkpt lat="43.56655" lon="1.3451">
        <ele>157.80000305176</ele>
        <time>2014-10-22T10:30:28.000Z</time>
      </trkpt>
      <trkpt lat="43.56656" lon="1.34507">
        <ele>157.80000305176</ele>
        <time>2014-10-22T10:30:29.000Z</time>
      </trkpt>
      <trkpt lat="43.56668" lon="1.34487">
        <ele>157.39999389648</ele>
        <time>2014-10-22T10:30:36.000Z</time>
      </trkpt>
      <trkpt lat="43.5667" lon="1.34484">
        <ele>157.39999389648</ele>
        <time>2014-10-22T10:30:37.000Z</time>
      </trkpt>
      <trkpt lat="43.56681" lon="1.34465">
        <ele>157.19999694824</ele>
        <time>2014-10-22T10:30:44.000Z</time>
      </trkpt>
      <trkpt lat="43.56693" lon="1.34445">
        <ele>157</ele>
        <time>2014-10-22T10:30:51.000Z</time>
      </trkpt>
      <trkpt lat="43.56704" lon="1.34425">
        <ele>157</ele>
        <time>2014-10-22T10:30:58.000Z</time>
      </trkpt>
      <trkpt lat="43.56717" lon="1.34406">
        <ele>156.80000305176</ele>
        <time>2014-10-22T10:31:05.000Z</time>
      </trkpt>
      <trkpt lat="43.56728" lon="1.34392">
        <ele>156.80000305176</ele>
        <time>2014-10-22T10:31:10.000Z</time>
      </trkpt>
      <trkpt lat="43.56741" lon="1.3438">
        <ele>156.60000610352</ele>
        <time>2014-10-22T10:31:16.000Z</time>
      </trkpt>
      <trkpt lat="43.56756" lon="1.34373">
        <ele>156.39999389648</ele>
        <time>2014-10-22T10:31:22.000Z</time>
      </trkpt>
      <trkpt lat="43.56773" lon="1.34369">
        <ele>156.39999389648</ele>
        <time>2014-10-22T10:31:28.000Z</time>
      </trkpt>
      <trkpt lat="43.5679" lon="1.34375">
        <ele>156.19999694824</ele>
        <time>2014-10-22T10:31:34.000Z</time>
      </trkpt>
      <trkpt lat="43.56804" lon="1.34381">
        <ele>156.19999694824</ele>
        <time>2014-10-22T10:31:39.000Z</time>
      </trkpt>
      <trkpt lat="43.56821" lon="1.3439">
        <ele>156</ele>
        <time>2014-10-22T10:31:45.000Z</time>
      </trkpt>
      <trkpt lat="43.56836" lon="1.34402">
        <ele>156</ele>
        <time>2014-10-22T10:31:52.000Z</time>
      </trkpt>
      <trkpt lat="43.56849" lon="1.34418">
        <ele>156</ele>
        <time>2014-10-22T10:31:58.000Z</time>
      </trkpt>
      <trkpt lat="43.56858" lon="1.34432">
        <ele>156</ele>
        <time>2014-10-22T10:32:03.000Z</time>
      </trkpt>
      <trkpt lat="43.56865" lon="1.34451">
        <ele>156</ele>
        <time>2014-10-22T10:32:09.000Z</time>
      </trkpt>
      <trkpt lat="43.56872" lon="1.34476">
        <ele>155.80000305176</ele>
        <time>2014-10-22T10:32:16.000Z</time>
      </trkpt>
      <trkpt lat="43.56879" lon="1.34501">
        <ele>155.60000610352</ele>
        <time>2014-10-22T10:32:23.000Z</time>
      </trkpt>
      <trkpt lat="43.56887" lon="1.34524">
        <ele>155.19999694824</ele>
        <time>2014-10-22T10:32:30.000Z</time>
      </trkpt>
      <trkpt lat="43.56897" lon="1.34545">
        <ele>155</ele>
        <time>2014-10-22T10:32:36.000Z</time>
      </trkpt>
      <trkpt lat="43.56909" lon="1.34559">
        <ele>155</ele>
        <time>2014-10-22T10:32:42.000Z</time>
      </trkpt>
      <trkpt lat="43.56925" lon="1.34568">
        <ele>155.19999694824</ele>
        <time>2014-10-22T10:32:49.000Z</time>
      </trkpt>
      <trkpt lat="43.56941" lon="1.34576">
        <ele>155.19999694824</ele>
        <time>2014-10-22T10:32:55.000Z</time>
      </trkpt>
      <trkpt lat="43.56958" lon="1.34583">
        <ele>155.19999694824</ele>
        <time>2014-10-22T10:33:02.000Z</time>
      </trkpt>
      <trkpt lat="43.56975" lon="1.34586">
        <ele>155.60000610352</ele>
        <time>2014-10-22T10:33:09.000Z</time>
      </trkpt>
      <trkpt lat="43.56993" lon="1.34588">
        <ele>155.80000305176</ele>
        <time>2014-10-22T10:33:16.000Z</time>
      </trkpt>
      <trkpt lat="43.57008" lon="1.34598">
        <ele>156</ele>
        <time>2014-10-22T10:33:22.000Z</time>
      </trkpt>
      <trkpt lat="43.57016" lon="1.3461">
        <ele>156</ele>
        <time>2014-10-22T10:33:27.000Z</time>
      </trkpt>
      <trkpt lat="43.57024" lon="1.34621">
        <ele>156.19999694824</ele>
        <time>2014-10-22T10:33:31.000Z</time>
      </trkpt>
      <trkpt lat="43.57034" lon="1.34637">
        <ele>156.39999389648</ele>
        <time>2014-10-22T10:33:37.000Z</time>
      </trkpt>
      <trkpt lat="43.57044" lon="1.34654">
        <ele>156.80000305176</ele>
        <time>2014-10-22T10:33:43.000Z</time>
      </trkpt>
      <trkpt lat="43.57055" lon="1.34672">
        <ele>156.80000305176</ele>
        <time>2014-10-22T10:33:49.000Z</time>
      </trkpt>
      <trkpt lat="43.57062" lon="1.34689">
        <ele>156.80000305176</ele>
        <time>2014-10-22T10:33:54.000Z</time>
      </trkpt>
      <trkpt lat="43.57061" lon="1.34706">
        <ele>156.80000305176</ele>
        <time>2014-10-22T10:33:59.000Z</time>
      </trkpt>
      <trkpt lat="43.5706" lon="1.34725">
        <ele>156.80000305176</ele>
        <time>2014-10-22T10:34:04.000Z</time>
      </trkpt>
      <trkpt lat="43.5706" lon="1.34742">
        <ele>156.60000610352</ele>
        <time>2014-10-22T10:34:09.000Z</time>
      </trkpt>
      <trkpt lat="43.57058" lon="1.3476">
        <ele>156.60000610352</ele>
        <time>2014-10-22T10:34:14.000Z</time>
      </trkpt>
      <trkpt lat="43.57053" lon="1.34776">
        <ele>156.39999389648</ele>
        <time>2014-10-22T10:34:19.000Z</time>
      </trkpt>
      <trkpt lat="43.57046" lon="1.34794">
        <ele>156</ele>
        <time>2014-10-22T10:34:25.000Z</time>
      </trkpt>
      <trkpt lat="43.57039" lon="1.34818">
        <ele>155.19999694824</ele>
        <time>2014-10-22T10:34:32.000Z</time>
      </trkpt>
      <trkpt lat="43.57033" lon="1.34839">
        <ele>154.80000305176</ele>
        <time>2014-10-22T10:34:38.000Z</time>
      </trkpt>
      <trkpt lat="43.57029" lon="1.34854">
        <ele>154.39999389648</ele>
        <time>2014-10-22T10:34:42.000Z</time>
      </trkpt>
      <trkpt lat="43.57029" lon="1.34877">
        <ele>153.80000305176</ele>
        <time>2014-10-22T10:34:48.000Z</time>
      </trkpt>
      <trkpt lat="43.57033" lon="1.34895">
        <ele>153.60000610352</ele>
        <time>2014-10-22T10:34:53.000Z</time>
      </trkpt>
      <trkpt lat="43.57041" lon="1.34916">
        <ele>153.60000610352</ele>
        <time>2014-10-22T10:34:59.000Z</time>
      </trkpt>
      <trkpt lat="43.57051" lon="1.34931">
        <ele>154</ele>
        <time>2014-10-22T10:35:04.000Z</time>
      </trkpt>
      <trkpt lat="43.57065" lon="1.34945">
        <ele>154.60000610352</ele>
        <time>2014-10-22T10:35:10.000Z</time>
      </trkpt>
      <trkpt lat="43.57079" lon="1.34957">
        <ele>154.80000305176</ele>
        <time>2014-10-22T10:35:16.000Z</time>
      </trkpt>
      <trkpt lat="43.57091" lon="1.34969">
        <ele>155</ele>
        <time>2014-10-22T10:35:22.000Z</time>
      </trkpt>
      <trkpt lat="43.57105" lon="1.34977">
        <ele>155.19999694824</ele>
        <time>2014-10-22T10:35:27.000Z</time>
      </trkpt>
      <trkpt lat="43.57121" lon="1.34983">
        <ele>155.19999694824</ele>
        <time>2014-10-22T10:35:33.000Z</time>
      </trkpt>
      <trkpt lat="43.57137" lon="1.34988">
        <ele>155</ele>
        <time>2014-10-22T10:35:39.000Z</time>
      </trkpt>
      <trkpt lat="43.57154" lon="1.34994">
        <ele>154.80000305176</ele>
        <time>2014-10-22T10:35:46.000Z</time>
      </trkpt>
      <trkpt lat="43.57171" lon="1.34999">
        <ele>154.60000610352</ele>
        <time>2014-10-22T10:35:52.000Z</time>
      </trkpt>
      <trkpt lat="43.57187" lon="1.35007">
        <ele>154.60000610352</ele>
        <time>2014-10-22T10:35:58.000Z</time>
      </trkpt>
      <trkpt lat="43.57202" lon="1.35015">
        <ele>154.60000610352</ele>
        <time>2014-10-22T10:36:04.000Z</time>
      </trkpt>
      <trkpt lat="43.57217" lon="1.35022">
        <ele>154.60000610352</ele>
        <time>2014-10-22T10:36:10.000Z</time>
      </trkpt>
      <trkpt lat="43.57228" lon="1.35035">
        <ele>154.60000610352</ele>
        <time>2014-10-22T10:36:15.000Z</time>
      </trkpt>
      <trkpt lat="43.5724" lon="1.3505">
        <ele>154.60000610352</ele>
        <time>2014-10-22T10:36:20.000Z</time>
      </trkpt>
      <trkpt lat="43.57253" lon="1.35067">
        <ele>154.60000610352</ele>
        <time>2014-10-22T10:36:26.000Z</time>
      </trkpt>
      <trkpt lat="43.57264" lon="1.35084">
        <ele>154.60000610352</ele>
        <time>2014-10-22T10:36:32.000Z</time>
      </trkpt>
      <trkpt lat="43.57272" lon="1.35104">
        <ele>154.80000305176</ele>
        <time>2014-10-22T10:36:38.000Z</time>
      </trkpt>
      <trkpt lat="43.5728" lon="1.35119">
        <ele>155</ele>
        <time>2014-10-22T10:36:43.000Z</time>
      </trkpt>
      <trkpt lat="43.57287" lon="1.35134">
        <ele>155.39999389648</ele>
        <time>2014-10-22T10:36:48.000Z</time>
      </trkpt>
      <trkpt lat="43.57295" lon="1.35148">
        <ele>156</ele>
        <time>2014-10-22T10:36:53.000Z</time>
      </trkpt>
      <trkpt lat="43.57306" lon="1.35162">
        <ele>156.39999389648</ele>
        <time>2014-10-22T10:36:59.000Z</time>
      </trkpt>
      <trkpt lat="43.57318" lon="1.35165">
        <ele>156.60000610352</ele>
        <time>2014-10-22T10:37:04.000Z</time>
      </trkpt>
      <trkpt lat="43.57333" lon="1.35162">
        <ele>156.80000305176</ele>
        <time>2014-10-22T10:37:10.000Z</time>
      </trkpt>
      <trkpt lat="43.57348" lon="1.35158">
        <ele>156.60000610352</ele>
        <time>2014-10-22T10:37:16.000Z</time>
      </trkpt>
      <trkpt lat="43.57361" lon="1.35155">
        <ele>156.60000610352</ele>
        <time>2014-10-22T10:37:21.000Z</time>
      </trkpt>
      <trkpt lat="43.57375" lon="1.35152">
        <ele>156.60000610352</ele>
        <time>2014-10-22T10:37:27.000Z</time>
      </trkpt>
      <trkpt lat="43.57395" lon="1.35149">
        <ele>156.39999389648</ele>
        <time>2014-10-22T10:37:35.000Z</time>
      </trkpt>
      <trkpt lat="43.57413" lon="1.35147">
        <ele>156.39999389648</ele>
        <time>2014-10-22T10:37:41.000Z</time>
      </trkpt>
      <trkpt lat="43.57432" lon="1.35148">
        <ele>156.39999389648</ele>
        <time>2014-10-22T10:37:48.000Z</time>
      </trkpt>
      <trkpt lat="43.57447" lon="1.35151">
        <ele>156.39999389648</ele>
        <time>2014-10-22T10:37:54.000Z</time>
      </trkpt>
      <trkpt lat="43.57463" lon="1.35158">
        <ele>156.39999389648</ele>
        <time>2014-10-22T10:38:00.000Z</time>
      </trkpt>
      <trkpt lat="43.57473" lon="1.35168">
        <ele>156.60000610352</ele>
        <time>2014-10-22T10:38:05.000Z</time>
      </trkpt>
      <trkpt lat="43.5749" lon="1.35179">
        <ele>157</ele>
        <time>2014-10-22T10:38:12.000Z</time>
      </trkpt>
      <trkpt lat="43.57504" lon="1.3519">
        <ele>157.19999694824</ele>
        <time>2014-10-22T10:38:18.000Z</time>
      </trkpt>
      <trkpt lat="43.57521" lon="1.35207">
        <ele>157.19999694824</ele>
        <time>2014-10-22T10:38:25.000Z</time>
      </trkpt>
      <trkpt lat="43.57533" lon="1.35224">
        <ele>157.19999694824</ele>
        <time>2014-10-22T10:38:31.000Z</time>
      </trkpt>
      <trkpt lat="43.57539" lon="1.35239">
        <ele>157.19999694824</ele>
        <time>2014-10-22T10:38:36.000Z</time>
      </trkpt>
      <trkpt lat="43.57546" lon="1.35252">
        <ele>157.39999389648</ele>
        <time>2014-10-22T10:38:40.000Z</time>
      </trkpt>
      <trkpt lat="43.57552" lon="1.35277">
        <ele>157.39999389648</ele>
        <time>2014-10-22T10:38:47.000Z</time>
      </trkpt>
      <trkpt lat="43.57555" lon="1.35299">
        <ele>157.60000610352</ele>
        <time>2014-10-22T10:38:53.000Z</time>
      </trkpt>
      <trkpt lat="43.57555" lon="1.35318">
        <ele>157.60000610352</ele>
        <time>2014-10-22T10:38:58.000Z</time>
      </trkpt>
      <trkpt lat="43.5756" lon="1.35338">
        <ele>157.80000305176</ele>
        <time>2014-10-22T10:39:04.000Z</time>
      </trkpt>
      <trkpt lat="43.57561" lon="1.3536">
        <ele>157.60000610352</ele>
        <time>2014-10-22T10:39:10.000Z</time>
      </trkpt>
      <trkpt lat="43.57561" lon="1.35386">
        <ele>157.39999389648</ele>
        <time>2014-10-22T10:39:17.000Z</time>
      </trkpt>
      <trkpt lat="43.57562" lon="1.35393">
        <ele>157.39999389648</ele>
        <time>2014-10-22T10:39:19.000Z</time>
      </trkpt>
      <trkpt lat="43.57561" lon="1.35416">
        <ele>157</ele>
        <time>2014-10-22T10:39:25.000Z</time>
      </trkpt>
      <trkpt lat="43.57558" lon="1.35443">
        <ele>156.80000305176</ele>
        <time>2014-10-22T10:39:32.000Z</time>
      </trkpt>
      <trkpt lat="43.57558" lon="1.35467">
        <ele>156.60000610352</ele>
        <time>2014-10-22T10:39:38.000Z</time>
      </trkpt>
      <trkpt lat="43.57558" lon="1.35494">
        <ele>156.19999694824</ele>
        <time>2014-10-22T10:39:45.000Z</time>
      </trkpt>
      <trkpt lat="43.57557" lon="1.35521">
        <ele>155.80000305176</ele>
        <time>2014-10-22T10:39:52.000Z</time>
      </trkpt>
      <trkpt lat="43.57557" lon="1.35526">
        <ele>155.80000305176</ele>
        <time>2014-10-22T10:39:53.000Z</time>
      </trkpt>
      <trkpt lat="43.57558" lon="1.35553">
        <ele>155.60000610352</ele>
        <time>2014-10-22T10:40:00.000Z</time>
      </trkpt>
      <trkpt lat="43.57559" lon="1.3558">
        <ele>155.39999389648</ele>
        <time>2014-10-22T10:40:07.000Z</time>
      </trkpt>
      <trkpt lat="43.5756" lon="1.35584">
        <ele>155.39999389648</ele>
        <time>2014-10-22T10:40:08.000Z</time>
      </trkpt>
      <trkpt lat="43.57559" lon="1.3561">
        <ele>155</ele>
        <time>2014-10-22T10:40:15.000Z</time>
      </trkpt>
      <trkpt lat="43.57558" lon="1.35635">
        <ele>154.80000305176</ele>
        <time>2014-10-22T10:40:22.000Z</time>
      </trkpt>
      <trkpt lat="43.57555" lon="1.35658">
        <ele>154.39999389648</ele>
        <time>2014-10-22T10:40:28.000Z</time>
      </trkpt>
      <trkpt lat="43.57551" lon="1.35677">
        <ele>154.19999694824</ele>
        <time>2014-10-22T10:40:33.000Z</time>
      </trkpt>
      <trkpt lat="43.57548" lon="1.35704">
        <ele>153.80000305176</ele>
        <time>2014-10-22T10:40:40.000Z</time>
      </trkpt>
      <trkpt lat="43.57548" lon="1.35706">
        <ele>153.80000305176</ele>
        <time>2014-10-22T10:40:41.000Z</time>
      </trkpt>
      <trkpt lat="43.57547" lon="1.35718">
        <ele>153.60000610352</ele>
        <time>2014-10-22T10:40:44.000Z</time>
      </trkpt>
      <trkpt lat="43.57548" lon="1.35726">
        <ele>153.60000610352</ele>
        <time>2014-10-22T10:40:46.000Z</time>
      </trkpt>
      <trkpt lat="43.57549" lon="1.35746">
        <ele>153.39999389648</ele>
        <time>2014-10-22T10:40:51.000Z</time>
      </trkpt>
      <trkpt lat="43.57551" lon="1.35753">
        <ele>153.39999389648</ele>
        <time>2014-10-22T10:40:53.000Z</time>
      </trkpt>
      <trkpt lat="43.57557" lon="1.35761">
        <ele>153.19999694824</ele>
        <time>2014-10-22T10:40:56.000Z</time>
      </trkpt>
      <trkpt lat="43.57562" lon="1.35764">
        <ele>153.19999694824</ele>
        <time>2014-10-22T10:40:58.000Z</time>
      </trkpt>
      <trkpt lat="43.57569" lon="1.35769">
        <ele>153.19999694824</ele>
        <time>2014-10-22T10:41:01.000Z</time>
      </trkpt>
      <trkpt lat="43.57587" lon="1.35781">
        <ele>153</ele>
        <time>2014-10-22T10:41:08.000Z</time>
      </trkpt>
      <trkpt lat="43.57589" lon="1.35783">
        <ele>153</ele>
        <time>2014-10-22T10:41:09.000Z</time>
      </trkpt>
      <trkpt lat="43.57602" lon="1.35793">
        <ele>153</ele>
        <time>2014-10-22T10:41:15.000Z</time>
      </trkpt>
      <trkpt lat="43.57618" lon="1.35804">
        <ele>153.19999694824</ele>
        <time>2014-10-22T10:41:21.000Z</time>
      </trkpt>
      <trkpt lat="43.5763" lon="1.35814">
        <ele>153.19999694824</ele>
        <time>2014-10-22T10:41:26.000Z</time>
      </trkpt>
      <trkpt lat="43.57634" lon="1.35817">
        <ele>153.19999694824</ele>
        <time>2014-10-22T10:41:28.000Z</time>
      </trkpt>
      <trkpt lat="43.5765" lon="1.35828">
        <ele>153.19999694824</ele>
        <time>2014-10-22T10:41:34.000Z</time>
      </trkpt>
      <trkpt lat="43.57666" lon="1.35841">
        <ele>153</ele>
        <time>2014-10-22T10:41:40.000Z</time>
      </trkpt>
      <trkpt lat="43.57678" lon="1.3585">
        <ele>153</ele>
        <time>2014-10-22T10:41:45.000Z</time>
      </trkpt>
      <trkpt lat="43.5769" lon="1.3586">
        <ele>152.80000305176</ele>
        <time>2014-10-22T10:41:50.000Z</time>
      </trkpt>
      <trkpt lat="43.57702" lon="1.35871">
        <ele>152.60000610352</ele>
        <time>2014-10-22T10:41:55.000Z</time>
      </trkpt>
      <trkpt lat="43.57718" lon="1.35883">
        <ele>152.39999389648</ele>
        <time>2014-10-22T10:42:01.000Z</time>
      </trkpt>
      <trkpt lat="43.57736" lon="1.35896">
        <ele>152.39999389648</ele>
        <time>2014-10-22T10:42:08.000Z</time>
      </trkpt>
      <trkpt lat="43.57749" lon="1.35905">
        <ele>152.39999389648</ele>
        <time>2014-10-22T10:42:13.000Z</time>
      </trkpt>
      <trkpt lat="43.57766" lon="1.35918">
        <ele>152.60000610352</ele>
        <time>2014-10-22T10:42:20.000Z</time>
      </trkpt>
      <trkpt lat="43.57768" lon="1.3592">
        <ele>152.60000610352</ele>
        <time>2014-10-22T10:42:21.000Z</time>
      </trkpt>
      <trkpt lat="43.57785" lon="1.35933">
        <ele>153</ele>
        <time>2014-10-22T10:42:28.000Z</time>
      </trkpt>
      <trkpt lat="43.57787" lon="1.35935">
        <ele>153</ele>
        <time>2014-10-22T10:42:29.000Z</time>
      </trkpt>
      <trkpt lat="43.57805" lon="1.35948">
        <ele>153.39999389648</ele>
        <time>2014-10-22T10:42:36.000Z</time>
      </trkpt>
      <trkpt lat="43.5781" lon="1.35951">
        <ele>153.60000610352</ele>
        <time>2014-10-22T10:42:38.000Z</time>
      </trkpt>
      <trkpt lat="43.57827" lon="1.35964">
        <ele>154</ele>
        <time>2014-10-22T10:42:45.000Z</time>
      </trkpt>
      <trkpt lat="43.57841" lon="1.35977">
        <ele>154.39999389648</ele>
        <time>2014-10-22T10:42:52.000Z</time>
      </trkpt>
      <trkpt lat="43.57854" lon="1.35979">
        <ele>154.60000610352</ele>
        <time>2014-10-22T10:42:57.000Z</time>
      </trkpt>
      <trkpt lat="43.57866" lon="1.3597">
        <ele>154.60000610352</ele>
        <time>2014-10-22T10:43:02.000Z</time>
      </trkpt>
      <trkpt lat="43.57877" lon="1.35955">
        <ele>154.60000610352</ele>
        <time>2014-10-22T10:43:08.000Z</time>
      </trkpt>
      <trkpt lat="43.57888" lon="1.35938">
        <ele>154.39999389648</ele>
        <time>2014-10-22T10:43:14.000Z</time>
      </trkpt>
      <trkpt lat="43.57901" lon="1.35919">
        <ele>154.19999694824</ele>
        <time>2014-10-22T10:43:21.000Z</time>
      </trkpt>
      <trkpt lat="43.57916" lon="1.35906">
        <ele>153.80000305176</ele>
        <time>2014-10-22T10:43:28.000Z</time>
      </trkpt>
      <trkpt lat="43.5792" lon="1.35912">
        <ele>153.60000610352</ele>
        <time>2014-10-22T10:43:31.000Z</time>
      </trkpt>
      <trkpt lat="43.57923" lon="1.35923">
        <ele>153.60000610352</ele>
        <time>2014-10-22T10:43:34.000Z</time>
      </trkpt>
      <trkpt lat="43.57925" lon="1.35934">
        <ele>153.60000610352</ele>
        <time>2014-10-22T10:43:37.000Z</time>
      </trkpt>
      <trkpt lat="43.57927" lon="1.35951">
        <ele>153.60000610352</ele>
        <time>2014-10-22T10:43:42.000Z</time>
      </trkpt>
      <trkpt lat="43.57933" lon="1.35972">
        <ele>153.60000610352</ele>
        <time>2014-10-22T10:43:48.000Z</time>
      </trkpt>
      <trkpt lat="43.5794" lon="1.35992">
        <ele>153.60000610352</ele>
        <time>2014-10-22T10:43:54.000Z</time>
      </trkpt>
      <trkpt lat="43.57949" lon="1.36016">
        <ele>154</ele>
        <time>2014-10-22T10:44:01.000Z</time>
      </trkpt>
      <trkpt lat="43.57956" lon="1.36039">
        <ele>154.19999694824</ele>
        <time>2014-10-22T10:44:08.000Z</time>
      </trkpt>
      <trkpt lat="43.57965" lon="1.36063">
        <ele>154.60000610352</ele>
        <time>2014-10-22T10:44:15.000Z</time>
      </trkpt>
      <trkpt lat="43.57973" lon="1.36084">
        <ele>154.80000305176</ele>
        <time>2014-10-22T10:44:21.000Z</time>
      </trkpt>
      <trkpt lat="43.57982" lon="1.36104">
        <ele>155</ele>
        <time>2014-10-22T10:44:27.000Z</time>
      </trkpt>
      <trkpt lat="43.5799" lon="1.36129">
        <ele>155.19999694824</ele>
        <time>2014-10-22T10:44:34.000Z</time>
      </trkpt>
      <trkpt lat="43.57992" lon="1.36132">
        <ele>155.39999389648</ele>
        <time>2014-10-22T10:44:35.000Z</time>
      </trkpt>
      <trkpt lat="43.58" lon="1.36156">
        <ele>155.39999389648</ele>
        <time>2014-10-22T10:44:42.000Z</time>
      </trkpt>
      <trkpt lat="43.5801" lon="1.36177">
        <ele>155.39999389648</ele>
        <time>2014-10-22T10:44:49.000Z</time>
      </trkpt>
      <trkpt lat="43.58018" lon="1.36201">
        <ele>155.39999389648</ele>
        <time>2014-10-22T10:44:56.000Z</time>
      </trkpt>
      <trkpt lat="43.58015" lon="1.36219">
        <ele>155.39999389648</ele>
        <time>2014-10-22T10:45:01.000Z</time>
      </trkpt>
      <trkpt lat="43.58016" lon="1.36239">
        <ele>155.19999694824</ele>
        <time>2014-10-22T10:45:06.000Z</time>
      </trkpt>
      <trkpt lat="43.58026" lon="1.36257">
        <ele>155.19999694824</ele>
        <time>2014-10-22T10:45:12.000Z</time>
      </trkpt>
      <trkpt lat="43.58039" lon="1.36272">
        <ele>155</ele>
        <time>2014-10-22T10:45:18.000Z</time>
      </trkpt>
      <trkpt lat="43.58044" lon="1.36296">
        <ele>154.80000305176</ele>
        <time>2014-10-22T10:45:24.000Z</time>
      </trkpt>
      <trkpt lat="43.58048" lon="1.36322">
        <ele>154.80000305176</ele>
        <time>2014-10-22T10:45:30.000Z</time>
      </trkpt>
      <trkpt lat="43.58052" lon="1.36347">
        <ele>154.80000305176</ele>
        <time>2014-10-22T10:45:36.000Z</time>
      </trkpt>
      <trkpt lat="43.58053" lon="1.36352">
        <ele>154.80000305176</ele>
        <time>2014-10-22T10:45:37.000Z</time>
      </trkpt>
      <trkpt lat="43.58058" lon="1.36373">
        <ele>154.80000305176</ele>
        <time>2014-10-22T10:45:42.000Z</time>
      </trkpt>
      <trkpt lat="43.58063" lon="1.36391">
        <ele>154.80000305176</ele>
        <time>2014-10-22T10:45:46.000Z</time>
      </trkpt>
      <trkpt lat="43.58067" lon="1.36414">
        <ele>154.60000610352</ele>
        <time>2014-10-22T10:45:51.000Z</time>
      </trkpt>
      <trkpt lat="43.58072" lon="1.36435">
        <ele>154.60000610352</ele>
        <time>2014-10-22T10:45:56.000Z</time>
      </trkpt>
      <trkpt lat="43.58079" lon="1.36462">
        <ele>154.39999389648</ele>
        <time>2014-10-22T10:46:02.000Z</time>
      </trkpt>
      <trkpt lat="43.58085" lon="1.36484">
        <ele>154.19999694824</ele>
        <time>2014-10-22T10:46:07.000Z</time>
      </trkpt>
      <trkpt lat="43.58091" lon="1.36509">
        <ele>154.19999694824</ele>
        <time>2014-10-22T10:46:13.000Z</time>
      </trkpt>
      <trkpt lat="43.58098" lon="1.36536">
        <ele>154</ele>
        <time>2014-10-22T10:46:19.000Z</time>
      </trkpt>
      <trkpt lat="43.58097" lon="1.3654">
        <ele>154</ele>
        <time>2014-10-22T10:46:20.000Z</time>
      </trkpt>
      <trkpt lat="43.58093" lon="1.36548">
        <ele>154</ele>
        <time>2014-10-22T10:46:22.000Z</time>
      </trkpt>
      <trkpt lat="43.58087" lon="1.36554">
        <ele>153.80000305176</ele>
        <time>2014-10-22T10:46:24.000Z</time>
      </trkpt>
      <trkpt lat="43.58079" lon="1.36562">
        <ele>153.80000305176</ele>
        <time>2014-10-22T10:46:27.000Z</time>
      </trkpt>
      <trkpt lat="43.58064" lon="1.3658">
        <ele>153.60000610352</ele>
        <time>2014-10-22T10:46:33.000Z</time>
      </trkpt>
      <trkpt lat="43.58056" lon="1.36589">
        <ele>153.39999389648</ele>
        <time>2014-10-22T10:46:36.000Z</time>
      </trkpt>
      <trkpt lat="43.58051" lon="1.36594">
        <ele>153.19999694824</ele>
        <time>2014-10-22T10:46:38.000Z</time>
      </trkpt>
      <trkpt lat="43.58037" lon="1.36613">
        <ele>152.80000305176</ele>
        <time>2014-10-22T10:46:44.000Z</time>
      </trkpt>
      <trkpt lat="43.58024" lon="1.36628">
        <ele>152.39999389648</ele>
        <time>2014-10-22T10:46:49.000Z</time>
      </trkpt>
      <trkpt lat="43.58009" lon="1.36646">
        <ele>151.60000610352</ele>
        <time>2014-10-22T10:46:55.000Z</time>
      </trkpt>
      <trkpt lat="43.57994" lon="1.36664">
        <ele>151</ele>
        <time>2014-10-22T10:47:01.000Z</time>
      </trkpt>
      <trkpt lat="43.57983" lon="1.3668">
        <ele>150.39999389648</ele>
        <time>2014-10-22T10:47:06.000Z</time>
      </trkpt>
      <trkpt lat="43.5798" lon="1.36692">
        <ele>150.19999694824</ele>
        <time>2014-10-22T10:47:09.000Z</time>
      </trkpt>
      <trkpt lat="43.5798" lon="1.36696">
        <ele>150</ele>
        <time>2014-10-22T10:47:10.000Z</time>
      </trkpt>
      <trkpt lat="43.5798" lon="1.36724">
        <ele>149.60000610352</ele>
        <time>2014-10-22T10:47:16.000Z</time>
      </trkpt>
      <trkpt lat="43.57977" lon="1.3675">
        <ele>149.19999694824</ele>
        <time>2014-10-22T10:47:22.000Z</time>
      </trkpt>
      <trkpt lat="43.57984" lon="1.36771">
        <ele>149</ele>
        <time>2014-10-22T10:47:27.000Z</time>
      </trkpt>
      <trkpt lat="43.57993" lon="1.36792">
        <ele>149</ele>
        <time>2014-10-22T10:47:32.000Z</time>
      </trkpt>
      <trkpt lat="43.58001" lon="1.36818">
        <ele>149</ele>
        <time>2014-10-22T10:47:38.000Z</time>
      </trkpt>
      <trkpt lat="43.58005" lon="1.36833">
        <ele>149</ele>
        <time>2014-10-22T10:47:42.000Z</time>
      </trkpt>
      <trkpt lat="43.58005" lon="1.36836">
        <ele>149</ele>
        <time>2014-10-22T10:47:43.000Z</time>
      </trkpt>
      <trkpt lat="43.58005" lon="1.36843">
        <ele>149</ele>
        <time>2014-10-22T10:47:46.000Z</time>
      </trkpt>
      <trkpt lat="43.58006" lon="1.36845">
        <ele>149</ele>
        <time>2014-10-22T10:47:47.000Z</time>
      </trkpt>
      <trkpt lat="43.58012" lon="1.36859">
        <ele>149</ele>
        <time>2014-10-22T10:47:50.000Z</time>
      </trkpt>
      <trkpt lat="43.5802" lon="1.36882">
        <ele>149</ele>
        <time>2014-10-22T10:47:55.000Z</time>
      </trkpt>
      <trkpt lat="43.58022" lon="1.36887">
        <ele>149</ele>
        <time>2014-10-22T10:47:56.000Z</time>
      </trkpt>
      <trkpt lat="43.5803" lon="1.36914">
        <ele>149.19999694824</ele>
        <time>2014-10-22T10:48:02.000Z</time>
      </trkpt>
      <trkpt lat="43.58034" lon="1.3694">
        <ele>149.39999389648</ele>
        <time>2014-10-22T10:48:08.000Z</time>
      </trkpt>
      <trkpt lat="43.58033" lon="1.36969">
        <ele>149.39999389648</ele>
        <time>2014-10-22T10:48:15.000Z</time>
      </trkpt>
      <trkpt lat="43.58034" lon="1.36993">
        <ele>149.19999694824</ele>
        <time>2014-10-22T10:48:21.000Z</time>
      </trkpt>
      <trkpt lat="43.58034" lon="1.37011">
        <ele>148.80000305176</ele>
        <time>2014-10-22T10:48:26.000Z</time>
      </trkpt>
      <trkpt lat="43.5804" lon="1.37029">
        <ele>148.39999389648</ele>
        <time>2014-10-22T10:48:31.000Z</time>
      </trkpt>
      <trkpt lat="43.58037" lon="1.37047">
        <ele>148.19999694824</ele>
        <time>2014-10-22T10:48:35.000Z</time>
      </trkpt>
      <trkpt lat="43.58036" lon="1.3705">
        <ele>148.19999694824</ele>
        <time>2014-10-22T10:48:36.000Z</time>
      </trkpt>
      <trkpt lat="43.5803" lon="1.37067">
        <ele>148</ele>
        <time>2014-10-22T10:48:40.000Z</time>
      </trkpt>
      <trkpt lat="43.58028" lon="1.37088">
        <ele>147.80000305176</ele>
        <time>2014-10-22T10:48:45.000Z</time>
      </trkpt>
      <trkpt lat="43.58028" lon="1.37109">
        <ele>147.19999694824</ele>
        <time>2014-10-22T10:48:50.000Z</time>
      </trkpt>
      <trkpt lat="43.58029" lon="1.3713">
        <ele>146.80000305176</ele>
        <time>2014-10-22T10:48:55.000Z</time>
      </trkpt>
      <trkpt lat="43.58029" lon="1.3715">
        <ele>146.39999389648</ele>
        <time>2014-10-22T10:49:00.000Z</time>
      </trkpt>
      <trkpt lat="43.58032" lon="1.37171">
        <ele>146</ele>
        <time>2014-10-22T10:49:05.000Z</time>
      </trkpt>
      <trkpt lat="43.58038" lon="1.37196">
        <ele>145.60000610352</ele>
        <time>2014-10-22T10:49:11.000Z</time>
      </trkpt>
      <trkpt lat="43.58039" lon="1.372">
        <ele>145.60000610352</ele>
        <time>2014-10-22T10:49:12.000Z</time>
      </trkpt>
      <trkpt lat="43.58045" lon="1.37225">
        <ele>145</ele>
        <time>2014-10-22T10:49:18.000Z</time>
      </trkpt>
      <trkpt lat="43.58054" lon="1.37247">
        <ele>145</ele>
        <time>2014-10-22T10:49:23.000Z</time>
      </trkpt>
      <trkpt lat="43.5806" lon="1.3727">
        <ele>145.19999694824</ele>
        <time>2014-10-22T10:49:28.000Z</time>
      </trkpt>
      <trkpt lat="43.58064" lon="1.37297">
        <ele>145.60000610352</ele>
        <time>2014-10-22T10:49:34.000Z</time>
      </trkpt>
      <trkpt lat="43.58069" lon="1.37323">
        <ele>145.80000305176</ele>
        <time>2014-10-22T10:49:40.000Z</time>
      </trkpt>
      <trkpt lat="43.5807" lon="1.37327">
        <ele>146</ele>
        <time>2014-10-22T10:49:41.000Z</time>
      </trkpt>
      <trkpt lat="43.58076" lon="1.37353">
        <ele>146.19999694824</ele>
        <time>2014-10-22T10:49:47.000Z</time>
      </trkpt>
      <trkpt lat="43.58081" lon="1.37374">
        <ele>146.19999694824</ele>
        <time>2014-10-22T10:49:52.000Z</time>
      </trkpt>
      <trkpt lat="43.58087" lon="1.374">
        <ele>146</ele>
        <time>2014-10-22T10:49:58.000Z</time>
      </trkpt>
      <trkpt lat="43.58094" lon="1.37426">
        <ele>146</ele>
        <time>2014-10-22T10:50:04.000Z</time>
      </trkpt>
      <trkpt lat="43.58098" lon="1.37447">
        <ele>146</ele>
        <time>2014-10-22T10:50:09.000Z</time>
      </trkpt>
      <trkpt lat="43.58106" lon="1.37462">
        <ele>145.80000305176</ele>
        <time>2014-10-22T10:50:14.000Z</time>
      </trkpt>
      <trkpt lat="43.5812" lon="1.37473">
        <ele>145.80000305176</ele>
        <time>2014-10-22T10:50:19.000Z</time>
      </trkpt>
      <trkpt lat="43.58132" lon="1.37494">
        <ele>145.80000305176</ele>
        <time>2014-10-22T10:50:25.000Z</time>
      </trkpt>
      <trkpt lat="43.58132" lon="1.37503">
        <ele>145.80000305176</ele>
        <time>2014-10-22T10:50:27.000Z</time>
      </trkpt>
      <trkpt lat="43.5813" lon="1.37507">
        <ele>145.80000305176</ele>
        <time>2014-10-22T10:50:28.000Z</time>
      </trkpt>
      <trkpt lat="43.58123" lon="1.37516">
        <ele>145.80000305176</ele>
        <time>2014-10-22T10:50:31.000Z</time>
      </trkpt>
      <trkpt lat="43.58121" lon="1.37519">
        <ele>145.60000610352</ele>
        <time>2014-10-22T10:50:32.000Z</time>
      </trkpt>
      <trkpt lat="43.58105" lon="1.37529">
        <ele>145.60000610352</ele>
        <time>2014-10-22T10:50:37.000Z</time>
      </trkpt>
      <trkpt lat="43.58099" lon="1.37546">
        <ele>145.39999389648</ele>
        <time>2014-10-22T10:50:41.000Z</time>
      </trkpt>
      <trkpt lat="43.58093" lon="1.3757">
        <ele>145.19999694824</ele>
        <time>2014-10-22T10:50:47.000Z</time>
      </trkpt>
      <trkpt lat="43.58088" lon="1.37591">
        <ele>144.80000305176</ele>
        <time>2014-10-22T10:50:52.000Z</time>
      </trkpt>
      <trkpt lat="43.58084" lon="1.37611">
        <ele>144.60000610352</ele>
        <time>2014-10-22T10:50:57.000Z</time>
      </trkpt>
      <trkpt lat="43.58077" lon="1.37635">
        <ele>144.19999694824</ele>
        <time>2014-10-22T10:51:03.000Z</time>
      </trkpt>
      <trkpt lat="43.58076" lon="1.37638">
        <ele>144.19999694824</ele>
        <time>2014-10-22T10:51:04.000Z</time>
      </trkpt>
      <trkpt lat="43.58071" lon="1.37663">
        <ele>143.60000610352</ele>
        <time>2014-10-22T10:51:10.000Z</time>
      </trkpt>
      <trkpt lat="43.5807" lon="1.37667">
        <ele>143.60000610352</ele>
        <time>2014-10-22T10:51:11.000Z</time>
      </trkpt>
      <trkpt lat="43.58062" lon="1.3769">
        <ele>143</ele>
        <time>2014-10-22T10:51:17.000Z</time>
      </trkpt>
      <trkpt lat="43.58055" lon="1.37708">
        <ele>142.60000610352</ele>
        <time>2014-10-22T10:51:22.000Z</time>
      </trkpt>
      <trkpt lat="43.58043" lon="1.37721">
        <ele>142.19999694824</ele>
        <time>2014-10-22T10:51:27.000Z</time>
      </trkpt>
      <trkpt lat="43.5803" lon="1.37738">
        <ele>141.60000610352</ele>
        <time>2014-10-22T10:51:33.000Z</time>
      </trkpt>
      <trkpt lat="43.58014" lon="1.37753">
        <ele>141.19999694824</ele>
        <time>2014-10-22T10:51:39.000Z</time>
      </trkpt>
      <trkpt lat="43.58012" lon="1.37755">
        <ele>141</ele>
        <time>2014-10-22T10:51:40.000Z</time>
      </trkpt>
      <trkpt lat="43.57996" lon="1.3777">
        <ele>140.80000305176</ele>
        <time>2014-10-22T10:51:46.000Z</time>
      </trkpt>
      <trkpt lat="43.5798" lon="1.37781">
        <ele>140.39999389648</ele>
        <time>2014-10-22T10:51:52.000Z</time>
      </trkpt>
      <trkpt lat="43.57963" lon="1.37793">
        <ele>140</ele>
        <time>2014-10-22T10:51:58.000Z</time>
      </trkpt>
      <trkpt lat="43.57949" lon="1.37804">
        <ele>139.80000305176</ele>
        <time>2014-10-22T10:52:03.000Z</time>
      </trkpt>
      <trkpt lat="43.57934" lon="1.37817">
        <ele>139.80000305176</ele>
        <time>2014-10-22T10:52:09.000Z</time>
      </trkpt>
      <trkpt lat="43.57932" lon="1.37819">
        <ele>139.80000305176</ele>
        <time>2014-10-22T10:52:10.000Z</time>
      </trkpt>
    </trkseg>
  </trk>
</gpx>